Mousie, Kentucky
Current Conditions -  °F | °C
As of 3:35 AM on Monday 22 Dec 2014 (Local Time) from KPBX Reporting Station
Overcast Overcast  
Wind Chill: 30°   Ceiling: 3700
Heat Index: 35°   Visibility: 10mi
Dew Point: 30°   Wind: 6mph
Humidity: 82%   Direction: 120°ESE
Pressure: 30.06"   Gusts: NA
Location:  37.42°N, 82.88°W
Report Text: KPBX 220835Z AUTO 12005KT 10SM OVC037 02/M01 A3006 RMK AO2 T00191009
Loading
Personal Weather Stations






























Interactive Weather Map New forecast layout! Learn more

10-Day Weather Forecast

Advertisements
Track Severe Weather on mobile